sensor_id;sensor_type;location;lat;lon;timestamp;P1;durP1;ratioP1;P2;durP2;ratioP2
15996;SDS011;8103;51.340;12.326;2024-03-02T00:00:21;39.97;;;23.90;;
15996;SDS011;8103;51.340;12.326;2024-03-02T00:02:48;33.63;;;22.33;;
15996;SDS011;8103;51.340;12.326;2024-03-02T00:05:19;33.70;;;22.70;;
15996;SDS011;8103;51.340;12.326;2024-03-02T00:10:27;36.92;;;23.00;;
15996;SDS011;8103;51.340;12.326;2024-03-02T00:13:06;38.78;;;23.13;;
15996;SDS011;8103;51.340;12.326;2024-03-02T00:15:55;39.95;;;22.98;;
15996;SDS011;8103;51.340;12.326;2024-03-02T00:18:30;35.65;;;23.80;;
15996;SDS011;8103;51.340;12.326;2024-03-02T00:20:59;38.95;;;23.77;;
15996;SDS011;8103;51.340;12.326;2024-03-02T00:23:29;34.70;;;22.48;;
15996;SDS011;8103;51.340;12.326;2024-03-02T00:25:57;35.97;;;22.30;;
15996;SDS011;8103;51.340;12.326;2024-03-02T00:28:29;34.58;;;22.65;;
15996;SDS011;8103;51.340;12.326;2024-03-02T00:33:30;33.83;;;23.63;;
15996;SDS011;8103;51.340;12.326;2024-03-02T00:35:59;38.13;;;23.40;;
15996;SDS011;8103;51.340;12.326;2024-03-02T00:38:27;42.03;;;25.20;;
15996;SDS011;8103;51.340;12.326;2024-03-02T00:40:54;34.03;;;23.15;;
15996;SDS011;8103;51.340;12.326;2024-03-02T00:46:23;39.40;;;22.90;;
15996;SDS011;8103;51.340;12.326;2024-03-02T00:48:54;36.63;;;23.17;;
15996;SDS011;8103;51.340;12.326;2024-03-02T00:51:22;38.72;;;24.00;;
15996;SDS011;8103;51.340;12.326;2024-03-02T00:53:53;38.20;;;22.35;;
15996;SDS011;8103;51.340;12.326;2024-03-02T00:56:24;34.13;;;20.85;;
15996;SDS011;8103;51.340;12.326;2024-03-02T00:58:51;33.97;;;22.55;;
15996;SDS011;8103;51.340;12.326;2024-03-02T01:01:18;36.33;;;23.35;;
15996;SDS011;8103;51.340;12.326;2024-03-02T01:03:48;36.95;;;22.38;;
15996;SDS011;8103;51.340;12.326;2024-03-02T01:06:16;34.15;;;22.38;;
15996;SDS011;8103;51.340;12.326;2024-03-02T01:08:43;36.78;;;22.40;;
15996;SDS011;8103;51.340;12.326;2024-03-02T01:11:10;34.47;;;22.65;;
15996;SDS011;8103;51.340;12.326;2024-03-02T01:13:37;36.92;;;22.10;;
15996;SDS011;8103;51.340;12.326;2024-03-02T01:16:04;36.25;;;22.75;;
15996;SDS011;8103;51.340;12.326;2024-03-02T01:18:31;38.30;;;20.77;;
15996;SDS011;8103;51.340;12.326;2024-03-02T01:20:57;32.80;;;21.48;;
15996;SDS011;8103;51.340;12.326;2024-03-02T01:23:24;32.10;;;20.48;;
15996;SDS011;8103;51.340;12.326;2024-03-02T01:25:51;31.00;;;20.95;;
15996;SDS011;8103;51.340;12.326;2024-03-02T01:28:18;32.40;;;20.17;;
15996;SDS011;8103;51.340;12.326;2024-03-02T01:30:47;31.45;;;18.20;;
15996;SDS011;8103;51.340;12.326;2024-03-02T01:33:14;32.10;;;19.00;;
15996;SDS011;8103;51.340;12.326;2024-03-02T01:35:42;27.42;;;18.23;;
15996;SDS011;8103;51.340;12.326;2024-03-02T01:38:08;28.92;;;18.17;;
15996;SDS011;8103;51.340;12.326;2024-03-02T01:40:36;35.25;;;20.38;;
15996;SDS011;8103;51.340;12.326;2024-03-02T01:43:03;31.30;;;20.55;;
15996;SDS011;8103;51.340;12.326;2024-03-02T01:45:31;31.00;;;20.52;;
15996;SDS011;8103;51.340;12.326;2024-03-02T01:47:58;32.10;;;20.10;;
15996;SDS011;8103;51.340;12.326;2024-03-02T01:50:26;38.30;;;22.80;;
15996;SDS011;8103;51.340;12.326;2024-03-02T01:52:58;31.73;;;19.60;;
15996;SDS011;8103;51.340;12.326;2024-03-02T01:55:25;30.40;;;18.50;;
15996;SDS011;8103;51.340;12.326;2024-03-02T01:57:53;29.48;;;19.10;;
15996;SDS011;8103;51.340;12.326;2024-03-02T02:00:21;35.58;;;19.85;;
15996;SDS011;8103;51.340;12.326;2024-03-02T02:02:48;28.50;;;18.67;;
15996;SDS011;8103;51.340;12.326;2024-03-02T02:05:15;26.40;;;17.75;;
15996;SDS011;8103;51.340;12.326;2024-03-02T02:07:42;25.25;;;17.17;;
15996;SDS011;8103;51.340;12.326;2024-03-02T02:10:12;27.00;;;16.48;;
15996;SDS011;8103;51.340;12.326;2024-03-02T02:12:39;31.13;;;19.92;;
15996;SDS011;8103;51.340;12.326;2024-03-02T02:17:53;27.85;;;17.63;;
15996;SDS011;8103;51.340;12.326;2024-03-02T02:20:20;29.67;;;17.30;;
15996;SDS011;8103;51.340;12.326;2024-03-02T02:22:57;27.15;;;18.17;;
15996;SDS011;8103;51.340;12.326;2024-03-02T02:25:28;27.10;;;17.92;;
15996;SDS011;8103;51.340;12.326;2024-03-02T02:27:56;23.88;;;16.48;;
15996;SDS011;8103;51.340;12.326;2024-03-02T02:30:25;26.75;;;17.05;;
15996;SDS011;8103;51.340;12.326;2024-03-02T02:32:53;31.60;;;18.88;;
15996;SDS011;8103;51.340;12.326;2024-03-02T02:35:20;28.67;;;17.70;;
15996;SDS011;8103;51.340;12.326;2024-03-02T02:37:48;24.55;;;16.05;;
15996;SDS011;8103;51.340;12.326;2024-03-02T02:40:15;24.33;;;17.05;;
15996;SDS011;8103;51.340;12.326;2024-03-02T02:42:42;27.33;;;17.73;;
15996;SDS011;8103;51.340;12.326;2024-03-02T02:45:09;24.25;;;16.85;;
15996;SDS011;8103;51.340;12.326;2024-03-02T02:47:37;31.60;;;19.20;;
15996;SDS011;8103;51.340;12.326;2024-03-02T02:50:04;25.17;;;16.95;;
15996;SDS011;8103;51.340;12.326;2024-03-02T02:52:37;25.25;;;15.93;;
15996;SDS011;8103;51.340;12.326;2024-03-02T02:55:07;25.70;;;16.75;;
15996;SDS011;8103;51.340;12.326;2024-03-02T02:57:35;24.17;;;16.35;;
15996;SDS011;8103;51.340;12.326;2024-03-02T03:00:07;27.70;;;17.55;;
15996;SDS011;8103;51.340;12.326;2024-03-02T03:02:43;27.45;;;17.80;;
15996;SDS011;8103;51.340;12.326;2024-03-02T03:05:15;25.60;;;16.13;;
15996;SDS011;8103;51.340;12.326;2024-03-02T03:07:42;21.15;;;14.52;;
15996;SDS011;8103;51.340;12.326;2024-03-02T03:10:10;21.83;;;15.13;;
15996;SDS011;8103;51.340;12.326;2024-03-02T03:12:37;29.25;;;17.30;;
15996;SDS011;8103;51.340;12.326;2024-03-02T03:15:04;21.73;;;15.50;;
15996;SDS011;8103;51.340;12.326;2024-03-02T03:17:33;24.75;;;16.13;;
15996;SDS011;8103;51.340;12.326;2024-03-02T03:19:59;23.70;;;14.30;;
15996;SDS011;8103;51.340;12.326;2024-03-02T03:22:27;22.80;;;14.60;;
15996;SDS011;8103;51.340;12.326;2024-03-02T03:24:53;24.02;;;14.15;;
15996;SDS011;8103;51.340;12.326;2024-03-02T03:27:20;18.55;;;13.50;;
15996;SDS011;8103;51.340;12.326;2024-03-02T03:29:47;20.83;;;13.30;;
15996;SDS011;8103;51.340;12.326;2024-03-02T03:32:14;26.02;;;15.07;;
15996;SDS011;8103;51.340;12.326;2024-03-02T03:34:40;20.60;;;13.25;;
15996;SDS011;8103;51.340;12.326;2024-03-02T03:37:07;26.58;;;14.38;;
15996;SDS011;8103;51.340;12.326;2024-03-02T03:39:34;24.65;;;13.55;;
15996;SDS011;8103;51.340;12.326;2024-03-02T03:42:02;18.70;;;13.40;;
15996;SDS011;8103;51.340;12.326;2024-03-02T03:44:29;22.30;;;13.95;;
15996;SDS011;8103;51.340;12.326;2024-03-02T03:46:56;23.25;;;13.73;;
15996;SDS011;8103;51.340;12.326;2024-03-02T03:49:23;20.33;;;13.48;;
15996;SDS011;8103;51.340;12.326;2024-03-02T03:51:49;17.45;;;13.00;;
15996;SDS011;8103;51.340;12.326;2024-03-02T03:54:16;24.58;;;14.65;;
15996;SDS011;8103;51.340;12.326;2024-03-02T03:56:43;20.75;;;13.63;;
15996;SDS011;8103;51.340;12.326;2024-03-02T03:59:10;20.55;;;14.00;;
15996;SDS011;8103;51.340;12.326;2024-03-02T04:01:37;21.48;;;13.70;;
15996;SDS011;8103;51.340;12.326;2024-03-02T04:04:04;17.77;;;13.45;;
15996;SDS011;8103;51.340;12.326;2024-03-02T04:06:30;21.70;;;14.13;;
15996;SDS011;8103;51.340;12.326;2024-03-02T04:08:58;26.08;;;15.07;;
15996;SDS011;8103;51.340;12.326;2024-03-02T04:11:24;19.88;;;14.10;;
15996;SDS011;8103;51.340;12.326;2024-03-02T04:13:51;22.58;;;14.35;;
15996;SDS011;8103;51.340;12.326;2024-03-02T04:16:20;19.95;;;14.40;;
15996;SDS011;8103;51.340;12.326;2024-03-02T04:18:46;20.73;;;14.18;;
15996;SDS011;8103;51.340;12.326;2024-03-02T04:21:13;24.38;;;14.68;;
15996;SDS011;8103;51.340;12.326;2024-03-02T04:23:40;23.85;;;14.77;;
15996;SDS011;8103;51.340;12.326;2024-03-02T04:26:07;25.05;;;15.02;;
15996;SDS011;8103;51.340;12.326;2024-03-02T04:28:33;23.83;;;14.80;;
15996;SDS011;8103;51.340;12.326;2024-03-02T04:31:00;20.35;;;13.43;;
15996;SDS011;8103;51.340;12.326;2024-03-02T04:33:27;21.50;;;14.00;;
15996;SDS011;8103;51.340;12.326;2024-03-02T04:35:53;22.02;;;14.70;;
15996;SDS011;8103;51.340;12.326;2024-03-02T04:38:20;22.63;;;15.30;;
15996;SDS011;8103;51.340;12.326;2024-03-02T04:40:47;19.40;;;13.73;;
15996;SDS011;8103;51.340;12.326;2024-03-02T04:43:13;21.70;;;14.82;;
15996;SDS011;8103;51.340;12.326;2024-03-02T04:45:42;21.92;;;14.63;;
15996;SDS011;8103;51.340;12.326;2024-03-02T04:48:09;21.73;;;14.50;;
15996;SDS011;8103;51.340;12.326;2024-03-02T04:50:36;20.30;;;13.30;;
15996;SDS011;8103;51.340;12.326;2024-03-02T04:53:02;24.27;;;15.15;;
15996;SDS011;8103;51.340;12.326;2024-03-02T04:55:29;20.58;;;13.07;;
15996;SDS011;8103;51.340;12.326;2024-03-02T04:58:06;24.55;;;15.35;;
15996;SDS011;8103;51.340;12.326;2024-03-02T05:00:33;23.83;;;13.65;;
15996;SDS011;8103;51.340;12.326;2024-03-02T05:03:00;23.73;;;14.50;;
15996;SDS011;8103;51.340;12.326;2024-03-02T05:05:28;18.40;;;13.75;;
15996;SDS011;8103;51.340;12.326;2024-03-02T05:07:54;23.95;;;15.63;;
15996;SDS011;8103;51.340;12.326;2024-03-02T05:10:21;21.42;;;15.30;;
15996;SDS011;8103;51.340;12.326;2024-03-02T05:12:48;24.88;;;14.35;;
15996;SDS011;8103;51.340;12.326;2024-03-02T05:15:25;25.60;;;15.20;;
15996;SDS011;8103;51.340;12.326;2024-03-02T05:17:52;22.38;;;14.82;;
15996;SDS011;8103;51.340;12.326;2024-03-02T05:20:19;21.88;;;15.02;;
15996;SDS011;8103;51.340;12.326;2024-03-02T05:22:46;23.52;;;14.23;;
15996;SDS011;8103;51.340;12.326;2024-03-02T05:25:14;26.08;;;16.13;;
15996;SDS011;8103;51.340;12.326;2024-03-02T05:27:41;24.98;;;16.60;;
15996;SDS011;8103;51.340;12.326;2024-03-02T05:30:08;22.10;;;15.52;;
15996;SDS011;8103;51.340;12.326;2024-03-02T05:32:35;24.88;;;16.08;;
15996;SDS011;8103;51.340;12.326;2024-03-02T05:35:01;25.98;;;16.20;;
15996;SDS011;8103;51.340;12.326;2024-03-02T05:37:29;28.25;;;16.05;;
15996;SDS011;8103;51.340;12.326;2024-03-02T05:39:55;25.48;;;15.68;;
15996;SDS011;8103;51.340;12.326;2024-03-02T05:42:22;22.35;;;14.63;;
15996;SDS011;8103;51.340;12.326;2024-03-02T05:44:49;23.13;;;14.48;;
15996;SDS011;8103;51.340;12.326;2024-03-02T05:47:16;28.48;;;16.35;;
15996;SDS011;8103;51.340;12.326;2024-03-02T05:49:42;21.50;;;14.32;;
15996;SDS011;8103;51.340;12.326;2024-03-02T05:52:09;23.23;;;15.45;;
15996;SDS011;8103;51.340;12.326;2024-03-02T05:54:37;26.40;;;16.08;;
15996;SDS011;8103;51.340;12.326;2024-03-02T05:57:04;30.30;;;16.85;;
15996;SDS011;8103;51.340;12.326;2024-03-02T05:59:55;27.40;;;17.50;;
15996;SDS011;8103;51.340;12.326;2024-03-02T06:02:22;25.77;;;16.15;;
15996;SDS011;8103;51.340;12.326;2024-03-02T06:04:49;31.55;;;18.63;;
15996;SDS011;8103;51.340;12.326;2024-03-02T06:07:15;25.05;;;17.15;;
15996;SDS011;8103;51.340;12.326;2024-03-02T06:09:42;25.88;;;16.27;;
15996;SDS011;8103;51.340;12.326;2024-03-02T06:12:10;30.17;;;16.95;;
15996;SDS011;8103;51.340;12.326;2024-03-02T06:14:36;25.38;;;16.48;;
15996;SDS011;8103;51.340;12.326;2024-03-02T06:17:03;24.40;;;16.10;;
15996;SDS011;8103;51.340;12.326;2024-03-02T06:19:31;27.48;;;15.98;;
15996;SDS011;8103;51.340;12.326;2024-03-02T06:21:58;25.10;;;15.93;;
15996;SDS011;8103;51.340;12.326;2024-03-02T06:24:24;25.70;;;17.45;;
15996;SDS011;8103;51.340;12.326;2024-03-02T06:26:52;29.67;;;18.63;;
15996;SDS011;8103;51.340;12.326;2024-03-02T06:29:19;29.25;;;18.20;;
15996;SDS011;8103;51.340;12.326;2024-03-02T06:31:45;28.17;;;18.15;;
15996;SDS011;8103;51.340;12.326;2024-03-02T06:34:12;27.95;;;17.13;;
15996;SDS011;8103;51.340;12.326;2024-03-02T06:36:39;25.65;;;18.00;;
15996;SDS011;8103;51.340;12.326;2024-03-02T06:39:07;31.30;;;17.85;;
15996;SDS011;8103;51.340;12.326;2024-03-02T06:41:33;22.73;;;15.82;;
15996;SDS011;8103;51.340;12.326;2024-03-02T06:44:00;28.25;;;16.75;;
15996;SDS011;8103;51.340;12.326;2024-03-02T06:46:27;34.33;;;17.85;;
15996;SDS011;8103;51.340;12.326;2024-03-02T06:48:53;31.15;;;18.02;;
15996;SDS011;8103;51.340;12.326;2024-03-02T06:51:20;34.13;;;19.20;;
15996;SDS011;8103;51.340;12.326;2024-03-02T06:53:47;35.80;;;20.50;;
15996;SDS011;8103;51.340;12.326;2024-03-02T06:56:13;33.83;;;19.73;;
15996;SDS011;8103;51.340;12.326;2024-03-02T06:58:40;31.17;;;20.20;;
15996;SDS011;8103;51.340;12.326;2024-03-02T07:01:07;29.80;;;18.75;;
15996;SDS011;8103;51.340;12.326;2024-03-02T07:03:34;31.95;;;19.85;;
15996;SDS011;8103;51.340;12.326;2024-03-02T07:06:00;30.98;;;18.70;;
15996;SDS011;8103;51.340;12.326;2024-03-02T07:08:27;27.50;;;17.40;;
15996;SDS011;8103;51.340;12.326;2024-03-02T07:10:54;26.92;;;18.42;;
15996;SDS011;8103;51.340;12.326;2024-03-02T07:13:20;26.60;;;17.67;;
15996;SDS011;8103;51.340;12.326;2024-03-02T07:15:47;26.63;;;17.85;;
15996;SDS011;8103;51.340;12.326;2024-03-02T07:18:29;25.42;;;15.98;;
15996;SDS011;8103;51.340;12.326;2024-03-02T07:20:57;30.58;;;18.38;;
15996;SDS011;8103;51.340;12.326;2024-03-02T07:23:25;29.80;;;17.17;;
15996;SDS011;8103;51.340;12.326;2024-03-02T07:25:53;26.17;;;17.25;;
15996;SDS011;8103;51.340;12.326;2024-03-02T07:28:25;34.15;;;20.48;;
15996;SDS011;8103;51.340;12.326;2024-03-02T07:31:02;36.28;;;20.02;;
15996;SDS011;8103;51.340;12.326;2024-03-02T07:33:30;30.90;;;21.08;;
15996;SDS011;8103;51.340;12.326;2024-03-02T07:35:58;37.22;;;22.30;;
15996;SDS011;8103;51.340;12.326;2024-03-02T07:38:28;35.20;;;21.33;;
15996;SDS011;8103;51.340;12.326;2024-03-02T07:40:55;31.00;;;20.80;;
15996;SDS011;8103;51.340;12.326;2024-03-02T07:43:22;31.02;;;17.33;;
15996;SDS011;8103;51.340;12.326;2024-03-02T07:45:49;26.48;;;17.10;;
15996;SDS011;8103;51.340;12.326;2024-03-02T07:48:15;29.17;;;16.70;;
15996;SDS011;8103;51.340;12.326;2024-03-02T07:50:42;27.85;;;17.40;;
15996;SDS011;8103;51.340;12.326;2024-03-02T07:53:09;25.27;;;18.23;;
15996;SDS011;8103;51.340;12.326;2024-03-02T07:55:36;26.05;;;17.45;;
15996;SDS011;8103;51.340;12.326;2024-03-02T07:58:02;31.90;;;19.77;;
15996;SDS011;8103;51.340;12.326;2024-03-02T08:00:30;29.00;;;19.15;;
15996;SDS011;8103;51.340;12.326;2024-03-02T08:02:56;26.88;;;17.50;;
15996;SDS011;8103;51.340;12.326;2024-03-02T08:05:23;26.90;;;16.77;;
15996;SDS011;8103;51.340;12.326;2024-03-02T08:07:50;21.40;;;15.85;;
15996;SDS011;8103;51.340;12.326;2024-03-02T08:10:19;28.80;;;18.40;;
15996;SDS011;8103;51.340;12.326;2024-03-02T08:12:45;24.90;;;17.00;;
15996;SDS011;8103;51.340;12.326;2024-03-02T08:15:12;25.30;;;16.10;;
15996;SDS011;8103;51.340;12.326;2024-03-02T08:17:39;23.40;;;15.93;;
15996;SDS011;8103;51.340;12.326;2024-03-02T08:20:14;22.35;;;14.93;;
15996;SDS011;8103;51.340;12.326;2024-03-02T08:22:41;26.02;;;16.48;;
15996;SDS011;8103;51.340;12.326;2024-03-02T08:25:08;25.98;;;16.25;;
15996;SDS011;8103;51.340;12.326;2024-03-02T08:27:35;19.98;;;14.38;;
15996;SDS011;8103;51.340;12.326;2024-03-02T08:30:03;24.00;;;15.90;;
15996;SDS011;8103;51.340;12.326;2024-03-02T08:32:33;25.30;;;16.92;;
15996;SDS011;8103;51.340;12.326;2024-03-02T08:34:59;24.88;;;16.45;;
15996;SDS011;8103;51.340;12.326;2024-03-02T08:37:26;24.80;;;15.65;;
15996;SDS011;8103;51.340;12.326;2024-03-02T08:39:53;23.58;;;14.82;;
15996;SDS011;8103;51.340;12.326;2024-03-02T08:42:20;24.63;;;15.68;;
15996;SDS011;8103;51.340;12.326;2024-03-02T08:44:47;28.17;;;17.02;;
15996;SDS011;8103;51.340;12.326;2024-03-02T08:47:14;27.80;;;18.05;;
15996;SDS011;8103;51.340;12.326;2024-03-02T08:49:41;22.60;;;15.88;;
15996;SDS011;8103;51.340;12.326;2024-03-02T08:52:07;24.35;;;16.90;;
15996;SDS011;8103;51.340;12.326;2024-03-02T08:54:35;26.35;;;16.15;;
15996;SDS011;8103;51.340;12.326;2024-03-02T08:57:02;21.38;;;15.00;;
15996;SDS011;8103;51.340;12.326;2024-03-02T08:59:28;25.30;;;17.40;;
15996;SDS011;8103;51.340;12.326;2024-03-02T09:01:55;25.45;;;16.95;;
15996;SDS011;8103;51.340;12.326;2024-03-02T09:04:22;25.52;;;18.23;;
15996;SDS011;8103;51.340;12.326;2024-03-02T09:06:51;25.35;;;16.63;;
15996;SDS011;8103;51.340;12.326;2024-03-02T09:09:18;25.58;;;16.05;;
15996;SDS011;8103;51.340;12.326;2024-03-02T09:11:45;26.05;;;16.88;;
15996;SDS011;8103;51.340;12.326;2024-03-02T09:14:13;28.13;;;16.58;;
15996;SDS011;8103;51.340;12.326;2024-03-02T09:16:41;26.17;;;16.02;;
15996;SDS011;8103;51.340;12.326;2024-03-02T09:19:08;22.23;;;15.85;;
15996;SDS011;8103;51.340;12.326;2024-03-02T09:21:35;22.73;;;15.75;;
15996;SDS011;8103;51.340;12.326;2024-03-02T09:24:02;24.60;;;16.67;;
15996;SDS011;8103;51.340;12.326;2024-03-02T09:26:29;24.67;;;16.00;;
15996;SDS011;8103;51.340;12.326;2024-03-02T09:28:56;23.48;;;16.20;;
15996;SDS011;8103;51.340;12.326;2024-03-02T09:31:23;24.70;;;17.05;;
15996;SDS011;8103;51.340;12.326;2024-03-02T09:33:49;26.88;;;16.08;;
15996;SDS011;8103;51.340;12.326;2024-03-02T09:36:19;24.77;;;17.10;;
15996;SDS011;8103;51.340;12.326;2024-03-02T09:38:46;22.38;;;16.13;;
15996;SDS011;8103;51.340;12.326;2024-03-02T09:41:14;24.27;;;16.05;;
15996;SDS011;8103;51.340;12.326;2024-03-02T09:43:41;24.33;;;16.60;;
15996;SDS011;8103;51.340;12.326;2024-03-02T09:46:10;25.88;;;15.90;;
15996;SDS011;8103;51.340;12.326;2024-03-02T09:48:38;25.52;;;17.48;;
15996;SDS011;8103;51.340;12.326;2024-03-02T09:51:05;24.20;;;16.83;;
15996;SDS011;8103;51.340;12.326;2024-03-02T09:53:32;23.60;;;16.38;;
15996;SDS011;8103;51.340;12.326;2024-03-02T09:56:00;22.13;;;15.48;;
15996;SDS011;8103;51.340;12.326;2024-03-02T09:58:27;26.98;;;16.20;;
15996;SDS011;8103;51.340;12.326;2024-03-02T10:00:54;24.17;;;15.80;;
15996;SDS011;8103;51.340;12.326;2024-03-02T10:03:20;29.08;;;17.17;;
15996;SDS011;8103;51.340;12.326;2024-03-02T10:05:50;23.02;;;16.15;;
15996;SDS011;8103;51.340;12.326;2024-03-02T10:08:17;23.42;;;15.65;;
15996;SDS011;8103;51.340;12.326;2024-03-02T10:10:44;21.77;;;15.43;;
15996;SDS011;8103;51.340;12.326;2024-03-02T10:13:12;22.23;;;15.30;;
15996;SDS011;8103;51.340;12.326;2024-03-02T10:15:40;22.58;;;14.50;;
15996;SDS011;8103;51.340;12.326;2024-03-02T10:18:08;19.50;;;13.85;;
15996;SDS011;8103;51.340;12.326;2024-03-02T10:20:39;19.58;;;13.95;;
15996;SDS011;8103;51.340;12.326;2024-03-02T10:23:10;20.85;;;14.40;;
15996;SDS011;8103;51.340;12.326;2024-03-02T10:25:38;20.45;;;13.32;;
15996;SDS011;8103;51.340;12.326;2024-03-02T10:28:08;17.88;;;13.32;;
15996;SDS011;8103;51.340;12.326;2024-03-02T10:30:35;21.95;;;13.27;;
15996;SDS011;8103;51.340;12.326;2024-03-02T10:33:02;16.77;;;12.20;;
15996;SDS011;8103;51.340;12.326;2024-03-02T10:35:31;16.10;;;12.40;;
15996;SDS011;8103;51.340;12.326;2024-03-02T10:37:59;14.45;;;11.48;;
15996;SDS011;8103;51.340;12.326;2024-03-02T10:40:27;17.20;;;11.30;;
15996;SDS011;8103;51.340;12.326;2024-03-02T10:42:53;14.40;;;10.30;;
15996;SDS011;8103;51.340;12.326;2024-03-02T10:45:21;9.82;;;8.48;;
15996;SDS011;8103;51.340;12.326;2024-03-02T10:47:49;9.25;;;8.18;;
15996;SDS011;8103;51.340;12.326;2024-03-02T10:50:16;12.45;;;9.55;;
15996;SDS011;8103;51.340;12.326;2024-03-02T10:52:43;12.55;;;10.32;;
15996;SDS011;8103;51.340;12.326;2024-03-02T10:55:10;11.05;;;9.07;;
15996;SDS011;8103;51.340;12.326;2024-03-02T10:57:40;10.52;;;9.10;;
15996;SDS011;8103;51.340;12.326;2024-03-02T11:00:19;10.23;;;8.48;;
15996;SDS011;8103;51.340;12.326;2024-03-02T11:02:51;8.75;;;7.72;;
15996;SDS011;8103;51.340;12.326;2024-03-02T11:05:30;12.43;;;8.60;;
15996;SDS011;8103;51.340;12.326;2024-03-02T11:08:00;12.88;;;9.15;;
15996;SDS011;8103;51.340;12.326;2024-03-02T11:13:27;7.07;;;6.38;;
15996;SDS011;8103;51.340;12.326;2024-03-02T11:15:59;9.73;;;7.50;;
15996;SDS011;8103;51.340;12.326;2024-03-02T11:18:30;8.73;;;7.45;;
15996;SDS011;8103;51.340;12.326;2024-03-02T11:20:58;8.77;;;7.70;;
15996;SDS011;8103;51.340;12.326;2024-03-02T11:23:32;8.70;;;7.90;;
15996;SDS011;8103;51.340;12.326;2024-03-02T11:28:51;9.23;;;8.30;;
15996;SDS011;8103;51.340;12.326;2024-03-02T11:31:18;9.88;;;8.88;;
15996;SDS011;8103;51.340;12.326;2024-03-02T11:33:45;8.25;;;7.40;;
15996;SDS011;8103;51.340;12.326;2024-03-02T11:36:11;9.35;;;7.28;;
15996;SDS011;8103;51.340;12.326;2024-03-02T11:38:38;9.18;;;8.27;;
15996;SDS011;8103;51.340;12.326;2024-03-02T11:41:09;7.38;;;6.63;;
15996;SDS011;8103;51.340;12.326;2024-03-02T11:43:37;7.93;;;7.13;;
15996;SDS011;8103;51.340;12.326;2024-03-02T11:46:07;7.53;;;6.55;;
15996;SDS011;8103;51.340;12.326;2024-03-02T11:48:35;7.93;;;7.10;;
15996;SDS011;8103;51.340;12.326;2024-03-02T11:51:04;6.88;;;6.10;;
15996;SDS011;8103;51.340;12.326;2024-03-02T11:53:31;8.48;;;7.68;;
15996;SDS011;8103;51.340;12.326;2024-03-02T11:56:00;7.07;;;6.40;;
15996;SDS011;8103;51.340;12.326;2024-03-02T11:58:28;7.72;;;6.95;;
15996;SDS011;8103;51.340;12.326;2024-03-02T12:00:55;8.05;;;7.25;;
15996;SDS011;8103;51.340;12.326;2024-03-02T12:03:23;6.32;;;5.72;;
15996;SDS011;8103;51.340;12.326;2024-03-02T12:05:54;7.68;;;6.97;;
15996;SDS011;8103;51.340;12.326;2024-03-02T12:08:21;6.32;;;5.72;;
15996;SDS011;8103;51.340;12.326;2024-03-02T12:10:58;7.43;;;6.00;;
15996;SDS011;8103;51.340;12.326;2024-03-02T12:13:27;6.80;;;6.15;;
15996;SDS011;8103;51.340;12.326;2024-03-02T12:15:54;9.50;;;8.57;;
15996;SDS011;8103;51.340;12.326;2024-03-02T12:18:25;6.18;;;5.63;;
15996;SDS011;8103;51.340;12.326;2024-03-02T12:20:52;7.25;;;6.55;;
15996;SDS011;8103;51.340;12.326;2024-03-02T12:23:22;6.15;;;5.55;;
15996;SDS011;8103;51.340;12.326;2024-03-02T12:25:49;6.57;;;5.78;;
15996;SDS011;8103;51.340;12.326;2024-03-02T12:28:16;8.07;;;7.38;;
15996;SDS011;8103;51.340;12.326;2024-03-02T12:30:44;5.57;;;4.93;;
15996;SDS011;8103;51.340;12.326;2024-03-02T12:33:11;7.30;;;5.00;;
15996;SDS011;8103;51.340;12.326;2024-03-02T12:35:38;8.35;;;6.65;;
15996;SDS011;8103;51.340;12.326;2024-03-02T12:38:06;6.20;;;5.60;;
15996;SDS011;8103;51.340;12.326;2024-03-02T12:40:33;5.07;;;4.40;;
15996;SDS011;8103;51.340;12.326;2024-03-02T12:42:59;5.20;;;4.70;;
15996;SDS011;8103;51.340;12.326;2024-03-02T12:45:27;8.52;;;6.53;;
15996;SDS011;8103;51.340;12.326;2024-03-02T12:47:53;5.53;;;4.25;;
15996;SDS011;8103;51.340;12.326;2024-03-02T12:50:20;4.82;;;4.43;;
15996;SDS011;8103;51.340;12.326;2024-03-02T12:52:51;5.03;;;4.53;;
15996;SDS011;8103;51.340;12.326;2024-03-02T12:55:19;5.13;;;4.45;;
15996;SDS011;8103;51.340;12.326;2024-03-02T12:57:49;6.10;;;5.50;;
15996;SDS011;8103;51.340;12.326;2024-03-02T13:00:18;6.10;;;5.50;;
15996;SDS011;8103;51.340;12.326;2024-03-02T13:02:46;4.85;;;4.45;;
15996;SDS011;8103;51.340;12.326;2024-03-02T13:05:14;6.80;;;6.10;;
15996;SDS011;8103;51.340;12.326;2024-03-02T13:07:41;4.53;;;3.97;;
15996;SDS011;8103;51.340;12.326;2024-03-02T13:10:08;5.53;;;5.03;;
15996;SDS011;8103;51.340;12.326;2024-03-02T13:12:36;6.18;;;4.70;;
15996;SDS011;8103;51.340;12.326;2024-03-02T13:15:03;6.90;;;4.93;;
15996;SDS011;8103;51.340;12.326;2024-03-02T13:17:33;5.97;;;5.38;;
15996;SDS011;8103;51.340;12.326;2024-03-02T13:20:02;5.30;;;4.80;;
15996;SDS011;8103;51.340;12.326;2024-03-02T13:22:30;5.82;;;5.00;;
15996;SDS011;8103;51.340;12.326;2024-03-02T13:24:57;6.95;;;4.85;;
15996;SDS011;8103;51.340;12.326;2024-03-02T13:27:26;5.55;;;4.80;;
15996;SDS011;8103;51.340;12.326;2024-03-02T13:29:52;7.15;;;5.97;;
15996;SDS011;8103;51.340;12.326;2024-03-02T13:32:20;6.00;;;3.80;;
15996;SDS011;8103;51.340;12.326;2024-03-02T13:34:50;5.32;;;4.78;;
15996;SDS011;8103;51.340;12.326;2024-03-02T13:37:16;5.30;;;4.80;;
15996;SDS011;8103;51.340;12.326;2024-03-02T13:39:43;6.13;;;5.05;;
15996;SDS011;8103;51.340;12.326;2024-03-02T13:42:10;4.10;;;3.70;;
15996;SDS011;8103;51.340;12.326;2024-03-02T13:44:39;8.68;;;3.85;;
15996;SDS011;8103;51.340;12.326;2024-03-02T13:47:06;5.53;;;5.03;;
15996;SDS011;8103;51.340;12.326;2024-03-02T13:49:33;4.18;;;3.75;;
15996;SDS011;8103;51.340;12.326;2024-03-02T13:52:03;6.93;;;6.00;;
15996;SDS011;8103;51.340;12.326;2024-03-02T13:54:36;5.03;;;4.50;;
15996;SDS011;8103;51.340;12.326;2024-03-02T13:57:04;4.28;;;3.88;;
15996;SDS011;8103;51.340;12.326;2024-03-02T13:59:32;6.40;;;4.57;;
15996;SDS011;8103;51.340;12.326;2024-03-02T14:02:00;4.88;;;4.18;;
15996;SDS011;8103;51.340;12.326;2024-03-02T14:04:27;4.53;;;4.13;;
15996;SDS011;8103;51.340;12.326;2024-03-02T14:06:54;5.18;;;4.68;;
15996;SDS011;8103;51.340;12.326;2024-03-02T14:09:22;5.78;;;5.28;;
15996;SDS011;8103;51.340;12.326;2024-03-02T14:11:51;5.38;;;4.85;;
15996;SDS011;8103;51.340;12.326;2024-03-02T14:14:18;5.03;;;4.63;;
15996;SDS011;8103;51.340;12.326;2024-03-02T14:16:45;5.07;;;4.32;;
15996;SDS011;8103;51.340;12.326;2024-03-02T14:19:12;6.25;;;4.82;;
15996;SDS011;8103;51.340;12.326;2024-03-02T14:21:39;4.35;;;3.95;;
15996;SDS011;8103;51.340;12.326;2024-03-02T14:24:06;4.63;;;4.22;;
15996;SDS011;8103;51.340;12.326;2024-03-02T14:26:38;4.30;;;3.88;;
15996;SDS011;8103;51.340;12.326;2024-03-02T14:29:05;4.85;;;4.40;;
15996;SDS011;8103;51.340;12.326;2024-03-02T14:31:32;5.20;;;4.70;;
15996;SDS011;8103;51.340;12.326;2024-03-02T14:33:59;5.70;;;4.13;;
15996;SDS011;8103;51.340;12.326;2024-03-02T14:36:26;4.93;;;4.43;;
15996;SDS011;8103;51.340;12.326;2024-03-02T14:38:54;4.90;;;4.45;;
15996;SDS011;8103;51.340;12.326;2024-03-02T14:41:21;12.00;;;5.53;;
15996;SDS011;8103;51.340;12.326;2024-03-02T14:43:50;6.20;;;3.88;;
15996;SDS011;8103;51.340;12.326;2024-03-02T14:46:17;5.05;;;4.18;;
15996;SDS011;8103;51.340;12.326;2024-03-02T14:48:44;3.65;;;3.35;;